sensor_id;sensor_type;location;lat;lon;timestamp;pressure;altitude;pressure_sealevel;temperature
6550;BMP280;15142;48.888;9.134;2023-08-08T00:01:31;98216.78;;;13.04
6550;BMP280;15142;48.888;9.134;2023-08-08T00:04:00;98212.59;;;13.08
6550;BMP280;15142;48.888;9.134;2023-08-08T00:06:29;98212.28;;;13.09
6550;BMP280;15142;48.888;9.134;2023-08-08T00:08:57;98215.63;;;13.10
6550;BMP280;15142;48.888;9.134;2023-08-08T00:11:26;98220.19;;;13.13
6550;BMP280;15142;48.888;9.134;2023-08-08T00:13:56;98219.63;;;13.15
6550;BMP280;15142;48.888;9.134;2023-08-08T00:16:27;98211.81;;;13.20
6550;BMP280;15142;48.888;9.134;2023-08-08T00:18:55;98213.09;;;13.36
6550;BMP280;15142;48.888;9.134;2023-08-08T00:21:24;98227.13;;;13.52
6550;BMP280;15142;48.888;9.134;2023-08-08T00:23:52;98232.53;;;13.64
6550;BMP280;15142;48.888;9.134;2023-08-08T00:26:21;98227.22;;;13.73
6550;BMP280;15142;48.888;9.134;2023-08-08T00:28:50;98223.78;;;13.78
6550;BMP280;15142;48.888;9.134;2023-08-08T00:31:18;98223.69;;;13.83
6550;BMP280;15142;48.888;9.134;2023-08-08T00:33:49;98216.63;;;13.88
6550;BMP280;15142;48.888;9.134;2023-08-08T00:36:18;98219.66;;;13.90
6550;BMP280;15142;48.888;9.134;2023-08-08T00:38:47;98216.53;;;13.93
6550;BMP280;15142;48.888;9.134;2023-08-08T00:41:15;98206.25;;;13.93
6550;BMP280;15142;48.888;9.134;2023-08-08T00:43:44;98210.81;;;13.96
6550;BMP280;15142;48.888;9.134;2023-08-08T00:46:13;98198.66;;;13.88
6550;BMP280;15142;48.888;9.134;2023-08-08T00:48:42;98206.25;;;13.93
6550;BMP280;15142;48.888;9.134;2023-08-08T00:51:14;98204.72;;;13.92
6550;BMP280;15142;48.888;9.134;2023-08-08T00:53:44;98203.25;;;13.91
6550;BMP280;15142;48.888;9.134;2023-08-08T00:56:13;98208.91;;;13.88
6550;BMP280;15142;48.888;9.134;2023-08-08T00:58:42;98200.59;;;13.83
6550;BMP280;15142;48.888;9.134;2023-08-08T01:01:12;98197.38;;;13.77
6550;BMP280;15142;48.888;9.134;2023-08-08T01:03:43;98192.78;;;13.74
6550;BMP280;15142;48.888;9.134;2023-08-08T01:06:21;98185.88;;;13.75
6550;BMP280;15142;48.888;9.134;2023-08-08T01:08:55;98193.25;;;13.76
6550;BMP280;15142;48.888;9.134;2023-08-08T01:11:27;98192.22;;;13.77
6550;BMP280;15142;48.888;9.134;2023-08-08T01:13:58;98198.28;;;13.81
6550;BMP280;15142;48.888;9.134;2023-08-08T01:16:27;98187.91;;;13.86
6550;BMP280;15142;48.888;9.134;2023-08-08T01:18:57;98197.31;;;13.91
6550;BMP280;15142;48.888;9.134;2023-08-08T01:21:29;98195.69;;;13.95
6550;BMP280;15142;48.888;9.134;2023-08-08T01:24:13;98185.41;;;13.95
6550;BMP280;15142;48.888;9.134;2023-08-08T01:26:42;98192.63;;;14.06
6550;BMP280;15142;48.888;9.134;2023-08-08T01:29:10;98191.19;;;14.13
6550;BMP280;15142;48.888;9.134;2023-08-08T01:31:39;98196.47;;;14.17
6550;BMP280;15142;48.888;9.134;2023-08-08T01:34:07;98192.09;;;14.17
6550;BMP280;15142;48.888;9.134;2023-08-08T01:36:40;98196.34;;;14.22
6550;BMP280;15142;48.888;9.134;2023-08-08T01:39:17;98190.75;;;14.20
6550;BMP280;15142;48.888;9.134;2023-08-08T01:41:47;98182.00;;;14.21
6550;BMP280;15142;48.888;9.134;2023-08-08T01:44:17;98178.38;;;14.22
6550;BMP280;15142;48.888;9.134;2023-08-08T01:46:47;98187.31;;;14.24
6550;BMP280;15142;48.888;9.134;2023-08-08T01:49:15;98185.06;;;14.23
6550;BMP280;15142;48.888;9.134;2023-08-08T01:51:44;98189.41;;;14.22
6550;BMP280;15142;48.888;9.134;2023-08-08T01:54:16;98184.13;;;14.19
6550;BMP280;15142;48.888;9.134;2023-08-08T01:56:45;98179.53;;;14.16
6550;BMP280;15142;48.888;9.134;2023-08-08T01:59:14;98183.00;;;14.11
6550;BMP280;15142;48.888;9.134;2023-08-08T02:01:42;98183.28;;;14.10
6550;BMP280;15142;48.888;9.134;2023-08-08T02:04:11;98174.66;;;14.06
6550;BMP280;15142;48.888;9.134;2023-08-08T02:06:39;98172.66;;;14.03
6550;BMP280;15142;48.888;9.134;2023-08-08T02:09:08;98177.63;;;14.00
6550;BMP280;15142;48.888;9.134;2023-08-08T02:11:42;98170.03;;;13.95
6550;BMP280;15142;48.888;9.134;2023-08-08T02:14:11;98173.91;;;13.92
6550;BMP280;15142;48.888;9.134;2023-08-08T02:16:39;98169.41;;;13.89
6550;BMP280;15142;48.888;9.134;2023-08-08T02:19:08;98170.56;;;13.83
6550;BMP280;15142;48.888;9.134;2023-08-08T02:21:37;98164.28;;;13.76
6550;BMP280;15142;48.888;9.134;2023-08-08T02:24:05;98157.47;;;13.72
6550;BMP280;15142;48.888;9.134;2023-08-08T02:26:34;98157.09;;;13.65
6550;BMP280;15142;48.888;9.134;2023-08-08T02:29:08;98156.16;;;13.61
6550;BMP280;15142;48.888;9.134;2023-08-08T02:31:37;98158.25;;;13.59
6550;BMP280;15142;48.888;9.134;2023-08-08T02:34:05;98162.13;;;13.56
6550;BMP280;15142;48.888;9.134;2023-08-08T02:36:34;98164.53;;;13.53
6550;BMP280;15142;48.888;9.134;2023-08-08T02:39:02;98165.13;;;13.50
6550;BMP280;15142;48.888;9.134;2023-08-08T02:41:31;98162.06;;;13.48
6550;BMP280;15142;48.888;9.134;2023-08-08T02:44:00;98167.22;;;13.48
6550;BMP280;15142;48.888;9.134;2023-08-08T02:46:32;98166.72;;;13.46
6550;BMP280;15142;48.888;9.134;2023-08-08T02:49:02;98166.25;;;13.44
6550;BMP280;15142;48.888;9.134;2023-08-08T02:51:30;98164.81;;;13.38
6550;BMP280;15142;48.888;9.134;2023-08-08T02:53:59;98165.22;;;13.32
6550;BMP280;15142;48.888;9.134;2023-08-08T02:56:30;98171.50;;;13.26
6550;BMP280;15142;48.888;9.134;2023-08-08T02:58:58;98163.13;;;13.20
6550;BMP280;15142;48.888;9.134;2023-08-08T03:01:27;98168.94;;;13.13
6550;BMP280;15142;48.888;9.134;2023-08-08T03:03:59;98166.16;;;13.09
6550;BMP280;15142;48.888;9.134;2023-08-08T03:06:28;98172.72;;;13.02
6550;BMP280;15142;48.888;9.134;2023-08-08T03:08:57;98168.16;;;12.99
6550;BMP280;15142;48.888;9.134;2023-08-08T03:11:26;98162.28;;;12.98
6550;BMP280;15142;48.888;9.134;2023-08-08T03:13:54;98154.88;;;12.97
6550;BMP280;15142;48.888;9.134;2023-08-08T03:16:23;98151.28;;;12.98
6550;BMP280;15142;48.888;9.134;2023-08-08T03:18:53;98147.66;;;12.99
6550;BMP280;15142;48.888;9.134;2023-08-08T03:21:26;98153.72;;;13.03
6550;BMP280;15142;48.888;9.134;2023-08-08T03:23:54;98155.75;;;13.06
6550;BMP280;15142;48.888;9.134;2023-08-08T03:26:23;98158.59;;;13.04
6550;BMP280;15142;48.888;9.134;2023-08-08T03:28:52;98155.81;;;13.01
6550;BMP280;15142;48.888;9.134;2023-08-08T03:31:29;98168.16;;;12.99
6550;BMP280;15142;48.888;9.134;2023-08-08T03:33:59;98161.34;;;12.94
6550;BMP280;15142;48.888;9.134;2023-08-08T03:36:30;98177.19;;;12.96
6550;BMP280;15142;48.888;9.134;2023-08-08T03:38:59;98159.06;;;12.93
6550;BMP280;15142;48.888;9.134;2023-08-08T03:41:29;98167.19;;;12.95
6550;BMP280;15142;48.888;9.134;2023-08-08T03:43:57;98162.03;;;13.00
6550;BMP280;15142;48.888;9.134;2023-08-08T03:46:28;98163.16;;;13.07
6550;BMP280;15142;48.888;9.134;2023-08-08T03:48:57;98158.97;;;13.11
6550;BMP280;15142;48.888;9.134;2023-08-08T03:51:26;98158.88;;;13.16
6550;BMP280;15142;48.888;9.134;2023-08-08T03:53:58;98166.78;;;13.19
6550;BMP280;15142;48.888;9.134;2023-08-08T03:56:27;98159.72;;;13.25
6550;BMP280;15142;48.888;9.134;2023-08-08T03:58:55;98167.78;;;13.32
6550;BMP280;15142;48.888;9.134;2023-08-08T04:01:24;98174.63;;;13.36
6550;BMP280;15142;48.888;9.134;2023-08-08T04:03:52;98170.44;;;13.40
6550;BMP280;15142;48.888;9.134;2023-08-08T04:06:22;98163.22;;;13.42
6550;BMP280;15142;48.888;9.134;2023-08-08T04:08:50;98162.63;;;13.45
6550;BMP280;15142;48.888;9.134;2023-08-08T04:11:21;98157.50;;;13.45
6550;BMP280;15142;48.888;9.134;2023-08-08T04:13:50;98160.53;;;13.47
6550;BMP280;15142;48.888;9.134;2023-08-08T04:16:18;98161.59;;;13.46
6550;BMP280;15142;48.888;9.134;2023-08-08T04:18:47;98163.41;;;13.45
6550;BMP280;15142;48.888;9.134;2023-08-08T04:21:16;98159.63;;;13.43
6550;BMP280;15142;48.888;9.134;2023-08-08T04:23:44;98169.91;;;13.43
6550;BMP280;15142;48.888;9.134;2023-08-08T04:26:13;98173.47;;;13.42
6550;BMP280;15142;48.888;9.134;2023-08-08T04:28:44;98171.84;;;13.46
6550;BMP280;15142;48.888;9.134;2023-08-08T04:31:13;98175.56;;;13.53
6550;BMP280;15142;48.888;9.134;2023-08-08T04:33:41;98176.31;;;13.54
6550;BMP280;15142;48.888;9.134;2023-08-08T04:36:10;98176.69;;;13.61
6550;BMP280;15142;48.888;9.134;2023-08-08T04:38:38;98179.16;;;13.66
6550;BMP280;15142;48.888;9.134;2023-08-08T04:41:07;98178.09;;;13.67
6550;BMP280;15142;48.888;9.134;2023-08-08T04:43:36;98188.66;;;13.65
6550;BMP280;15142;48.888;9.134;2023-08-08T04:46:07;98177.59;;;13.65
6550;BMP280;15142;48.888;9.134;2023-08-08T04:48:35;98180.47;;;13.63
6550;BMP280;15142;48.888;9.134;2023-08-08T04:51:05;98177.13;;;13.63
6550;BMP280;15142;48.888;9.134;2023-08-08T04:53:34;98185.22;;;13.70
6550;BMP280;15142;48.888;9.134;2023-08-08T04:56:03;98180.97;;;13.65
6550;BMP280;15142;48.888;9.134;2023-08-08T04:58:31;98175.34;;;13.63
6550;BMP280;15142;48.888;9.134;2023-08-08T05:01:00;98180.28;;;13.60
6550;BMP280;15142;48.888;9.134;2023-08-08T05:03:31;98172.41;;;13.56
6550;BMP280;15142;48.888;9.134;2023-08-08T05:05:59;98177.25;;;13.58
6550;BMP280;15142;48.888;9.134;2023-08-08T05:08:29;98170.97;;;13.64
6550;BMP280;15142;48.888;9.134;2023-08-08T05:10:57;98168.50;;;13.72
6550;BMP280;15142;48.888;9.134;2023-08-08T05:13:26;98178.53;;;13.82
6550;BMP280;15142;48.888;9.134;2023-08-08T05:15:54;98170.16;;;13.90
6550;BMP280;15142;48.888;9.134;2023-08-08T05:18:23;98169.16;;;13.99
6550;BMP280;15142;48.888;9.134;2023-08-08T05:20:54;98174.66;;;14.06
6550;BMP280;15142;48.888;9.134;2023-08-08T05:23:23;98182.25;;;14.11
6550;BMP280;15142;48.888;9.134;2023-08-08T05:25:52;98178.91;;;14.10
6550;BMP280;15142;48.888;9.134;2023-08-08T05:28:20;98176.31;;;14.10
6550;BMP280;15142;48.888;9.134;2023-08-08T05:30:49;98187.38;;;14.11
6550;BMP280;15142;48.888;9.134;2023-08-08T05:33:18;98184.34;;;14.09
6550;BMP280;15142;48.888;9.134;2023-08-08T05:35:46;98185.72;;;14.15
6550;BMP280;15142;48.888;9.134;2023-08-08T05:38:17;98181.22;;;14.20
6550;BMP280;15142;48.888;9.134;2023-08-08T05:40:46;98188.09;;;14.25
6550;BMP280;15142;48.888;9.134;2023-08-08T05:43:15;98179.78;;;14.28
6550;BMP280;15142;48.888;9.134;2023-08-08T05:45:44;98184.34;;;14.30
6550;BMP280;15142;48.888;9.134;2023-08-08T05:48:13;98191.44;;;14.33
6550;BMP280;15142;48.888;9.134;2023-08-08T05:50:41;98188.31;;;14.36
6550;BMP280;15142;48.888;9.134;2023-08-08T05:53:10;98187.56;;;14.44
6550;BMP280;15142;48.888;9.134;2023-08-08T05:55:43;98192.00;;;14.52
6550;BMP280;15142;48.888;9.134;2023-08-08T05:58:12;98195.50;;;14.56
6550;BMP280;15142;48.888;9.134;2023-08-08T06:00:40;98186.34;;;14.63
6550;BMP280;15142;48.888;9.134;2023-08-08T06:03:09;98185.81;;;14.75
6550;BMP280;15142;48.888;9.134;2023-08-08T06:05:37;98194.13;;;14.80
6550;BMP280;15142;48.888;9.134;2023-08-08T06:08:06;98191.28;;;14.90
6550;BMP280;15142;48.888;9.134;2023-08-08T06:10:38;98188.16;;;15.01
6550;BMP280;15142;48.888;9.134;2023-08-08T06:13:09;98188.38;;;15.13
6550;BMP280;15142;48.888;9.134;2023-08-08T06:15:37;98194.28;;;15.22
6550;BMP280;15142;48.888;9.134;2023-08-08T06:18:06;98185.53;;;15.23
6550;BMP280;15142;48.888;9.134;2023-08-08T06:20:35;98192.97;;;15.33
6550;BMP280;15142;48.888;9.134;2023-08-08T06:23:04;98192.09;;;15.54
6550;BMP280;15142;48.888;9.134;2023-08-08T06:25:32;98191.34;;;15.70
6550;BMP280;15142;48.888;9.134;2023-08-08T06:28:01;98193.94;;;15.87
6550;BMP280;15142;48.888;9.134;2023-08-08T06:30:32;98189.41;;;15.92
6550;BMP280;15142;48.888;9.134;2023-08-08T06:33:00;98192.56;;;16.06
6550;BMP280;15142;48.888;9.134;2023-08-08T06:35:29;98193.44;;;16.18
6550;BMP280;15142;48.888;9.134;2023-08-08T06:37:58;98190.09;;;16.26
6550;BMP280;15142;48.888;9.134;2023-08-08T06:40:26;98194.47;;;16.34
6550;BMP280;15142;48.888;9.134;2023-08-08T06:42:55;98190.53;;;16.36
6550;BMP280;15142;48.888;9.134;2023-08-08T06:45:24;98191.44;;;16.40
6550;BMP280;15142;48.888;9.134;2023-08-08T06:47:55;98194.59;;;16.46
6550;BMP280;15142;48.888;9.134;2023-08-08T06:50:24;98192.50;;;16.48
6550;BMP280;15142;48.888;9.134;2023-08-08T06:52:52;98194.56;;;16.62
6550;BMP280;15142;48.888;9.134;2023-08-08T06:55:21;98193.91;;;16.74
6550;BMP280;15142;48.888;9.134;2023-08-08T06:57:49;98189.59;;;16.86
6550;BMP280;15142;48.888;9.134;2023-08-08T07:00:19;98190.75;;;16.97
6550;BMP280;15142;48.888;9.134;2023-08-08T07:02:47;98194.50;;;17.08
6550;BMP280;15142;48.888;9.134;2023-08-08T07:05:19;98180.97;;;17.11
6550;BMP280;15142;48.888;9.134;2023-08-08T07:07:48;98181.81;;;17.23
6550;BMP280;15142;48.888;9.134;2023-08-08T07:10:17;98184.81;;;17.25
6550;BMP280;15142;48.888;9.134;2023-08-08T07:12:46;98189.97;;;17.33
6550;BMP280;15142;48.888;9.134;2023-08-08T07:15:15;98186.56;;;17.41
6550;BMP280;15142;48.888;9.134;2023-08-08T07:17:43;98187.91;;;17.47
6550;BMP280;15142;48.888;9.134;2023-08-08T07:20:12;98182.28;;;17.45
6550;BMP280;15142;48.888;9.134;2023-08-08T07:22:46;98186.28;;;17.54
6550;BMP280;15142;48.888;9.134;2023-08-08T07:25:15;98183.16;;;17.49
6550;BMP280;15142;48.888;9.134;2023-08-08T07:27:43;98178.66;;;17.58
6550;BMP280;15142;48.888;9.134;2023-08-08T07:30:12;98175.09;;;17.70
6550;BMP280;15142;48.888;9.134;2023-08-08T07:32:41;98174.66;;;17.89
6550;BMP280;15142;48.888;9.134;2023-08-08T07:35:09;98177.78;;;18.06
6550;BMP280;15142;48.888;9.134;2023-08-08T07:37:38;98175.53;;;18.16
6550;BMP280;15142;48.888;9.134;2023-08-08T07:40:16;98174.63;;;18.21
6550;BMP280;15142;48.888;9.134;2023-08-08T07:42:46;98175.28;;;18.29
6550;BMP280;15142;48.888;9.134;2023-08-08T07:45:15;98183.19;;;18.68
6550;BMP280;15142;48.888;9.134;2023-08-08T07:47:44;98175.88;;;18.82
6550;BMP280;15142;48.888;9.134;2023-08-08T07:50:13;98175.78;;;19.17
6550;BMP280;15142;48.888;9.134;2023-08-08T07:52:42;98168.44;;;19.31
6550;BMP280;15142;48.888;9.134;2023-08-08T07:55:10;98168.16;;;19.09
6550;BMP280;15142;48.888;9.134;2023-08-08T07:57:41;98157.41;;;18.83
6550;BMP280;15142;48.888;9.134;2023-08-08T08:00:12;98154.19;;;18.51
6550;BMP280;15142;48.888;9.134;2023-08-08T08:02:42;98157.53;;;18.51
6550;BMP280;15142;48.888;9.134;2023-08-08T08:05:12;98160.66;;;18.57
6550;BMP280;15142;48.888;9.134;2023-08-08T08:07:41;98157.63;;;18.67
6550;BMP280;15142;48.888;9.134;2023-08-08T08:10:13;98164.31;;;18.79
6550;BMP280;15142;48.888;9.134;2023-08-08T08:12:44;98164.72;;;18.93
6550;BMP280;15142;48.888;9.134;2023-08-08T08:15:13;98165.56;;;19.09
6550;BMP280;15142;48.888;9.134;2023-08-08T08:17:41;98162.16;;;18.93
6550;BMP280;15142;48.888;9.134;2023-08-08T08:20:10;98151.78;;;18.93
6550;BMP280;15142;48.888;9.134;2023-08-08T08:22:39;98154.34;;;19.05
6550;BMP280;15142;48.888;9.134;2023-08-08T08:25:08;98152.22;;;18.95
6550;BMP280;15142;48.888;9.134;2023-08-08T08:27:37;98158.69;;;19.01
6550;BMP280;15142;48.888;9.134;2023-08-08T08:30:09;98152.84;;;19.16
6550;BMP280;15142;48.888;9.134;2023-08-08T08:32:39;98151.91;;;19.35
6550;BMP280;15142;48.888;9.134;2023-08-08T08:35:09;98149.38;;;19.51
6550;BMP280;15142;48.888;9.134;2023-08-08T08:37:38;98159.59;;;19.59
6550;BMP280;15142;48.888;9.134;2023-08-08T08:40:08;98156.09;;;19.67
6550;BMP280;15142;48.888;9.134;2023-08-08T08:42:38;98149.44;;;19.66
6550;BMP280;15142;48.888;9.134;2023-08-08T08:45:11;98156.94;;;19.71
6550;BMP280;15142;48.888;9.134;2023-08-08T08:47:41;98148.59;;;19.62
6550;BMP280;15142;48.888;9.134;2023-08-08T08:50:11;98145.38;;;19.53
6550;BMP280;15142;48.888;9.134;2023-08-08T08:52:42;98147.06;;;19.61
6550;BMP280;15142;48.888;9.134;2023-08-08T08:55:10;98148.47;;;19.85
6550;BMP280;15142;48.888;9.134;2023-08-08T08:57:39;98136.88;;;20.10
6550;BMP280;15142;48.888;9.134;2023-08-08T09:00:14;98128.91;;;20.03
6550;BMP280;15142;48.888;9.134;2023-08-08T09:02:43;98136.44;;;19.78
6550;BMP280;15142;48.888;9.134;2023-08-08T09:05:12;98132.00;;;19.93
6550;BMP280;15142;48.888;9.134;2023-08-08T09:07:41;98127.50;;;20.06
6550;BMP280;15142;48.888;9.134;2023-08-08T09:10:10;98136.94;;;20.29
6550;BMP280;15142;48.888;9.134;2023-08-08T09:12:38;98128.91;;;20.34
6550;BMP280;15142;48.888;9.134;2023-08-08T09:15:08;98135.59;;;20.19
6550;BMP280;15142;48.888;9.134;2023-08-08T09:17:43;98125.13;;;20.46
6550;BMP280;15142;48.888;9.134;2023-08-08T09:20:13;98123.25;;;20.13
6550;BMP280;15142;48.888;9.134;2023-08-08T09:22:42;98119.88;;;20.28
6550;BMP280;15142;48.888;9.134;2023-08-08T09:25:10;98120.47;;;20.21
6550;BMP280;15142;48.888;9.134;2023-08-08T09:27:40;98118.28;;;20.23
6550;BMP280;15142;48.888;9.134;2023-08-08T09:30:10;98116.47;;;20.39
6550;BMP280;15142;48.888;9.134;2023-08-08T09:32:42;98118.69;;;20.40
6550;BMP280;15142;48.888;9.134;2023-08-08T09:35:11;98116.59;;;20.80
6550;BMP280;15142;48.888;9.134;2023-08-08T09:37:40;98113.34;;;21.01
6550;BMP280;15142;48.888;9.134;2023-08-08T09:40:09;98113.88;;;21.10
6550;BMP280;15142;48.888;9.134;2023-08-08T09:42:40;98116.53;;;21.13
6550;BMP280;15142;48.888;9.134;2023-08-08T09:45:09;98112.31;;;21.06
6550;BMP280;15142;48.888;9.134;2023-08-08T09:47:38;98106.91;;;21.14
6550;BMP280;15142;48.888;9.134;2023-08-08T09:50:10;98096.00;;;20.87
6550;BMP280;15142;48.888;9.134;2023-08-08T09:52:38;98091.28;;;21.11
6550;BMP280;15142;48.888;9.134;2023-08-08T09:55:07;98087.19;;;21.28
6550;BMP280;15142;48.888;9.134;2023-08-08T09:57:38;98092.75;;;20.74
6550;BMP280;15142;48.888;9.134;2023-08-08T10:00:09;98098.44;;;20.80
6550;BMP280;15142;48.888;9.134;2023-08-08T10:02:42;98089.28;;;20.67
6550;BMP280;15142;48.888;9.134;2023-08-08T10:05:14;98087.69;;;20.62
6550;BMP280;15142;48.888;9.134;2023-08-08T10:07:44;98098.47;;;20.98
6550;BMP280;15142;48.888;9.134;2023-08-08T10:10:13;98091.75;;;21.16
6550;BMP280;15142;48.888;9.134;2023-08-08T10:12:48;98086.63;;;21.60
6550;BMP280;15142;48.888;9.134;2023-08-08T10:15:16;98088.59;;;21.66
6550;BMP280;15142;48.888;9.134;2023-08-08T10:17:45;98090.94;;;21.75
6550;BMP280;15142;48.888;9.134;2023-08-08T10:20:18;98085.25;;;21.66
6550;BMP280;15142;48.888;9.134;2023-08-08T10:22:47;98088.19;;;21.65
6550;BMP280;15142;48.888;9.134;2023-08-08T10:25:22;98092.56;;;21.61
6550;BMP280;15142;48.888;9.134;2023-08-08T10:28:03;98085.53;;;21.83
6550;BMP280;15142;48.888;9.134;2023-08-08T10:30:42;98088.44;;;21.60
6550;BMP280;15142;48.888;9.134;2023-08-08T10:33:15;98088.78;;;20.61
6550;BMP280;15142;48.888;9.134;2023-08-08T10:35:56;98092.47;;;21.13
6550;BMP280;15142;48.888;9.134;2023-08-08T10:38:25;98091.19;;;21.26
6550;BMP280;15142;48.888;9.134;2023-08-08T10:40:58;98082.25;;;21.90
6550;BMP280;15142;48.888;9.134;2023-08-08T10:43:28;98090.66;;;22.02
6550;BMP280;15142;48.888;9.134;2023-08-08T10:45:57;98083.09;;;21.49
6550;BMP280;15142;48.888;9.134;2023-08-08T10:48:27;98092.50;;;21.79
6550;BMP280;15142;48.888;9.134;2023-08-08T10:51:00;98090.56;;;21.73
6550;BMP280;15142;48.888;9.134;2023-08-08T10:53:28;98102.06;;;21.72
6550;BMP280;15142;48.888;9.134;2023-08-08T10:55:58;98082.28;;;21.45
6550;BMP280;15142;48.888;9.134;2023-08-08T10:58:37;98074.09;;;21.43
6550;BMP280;15142;48.888;9.134;2023-08-08T11:01:07;98082.75;;;21.73
6550;BMP280;15142;48.888;9.134;2023-08-08T11:03:39;98082.25;;;21.64
6550;BMP280;15142;48.888;9.134;2023-08-08T11:06:10;98085.69;;;22.19
6550;BMP280;15142;48.888;9.134;2023-08-08T11:08:39;98080.50;;;22.73
6550;BMP280;15142;48.888;9.134;2023-08-08T11:21:12;98077.28;;;22.87
6550;BMP280;15142;48.888;9.134;2023-08-08T11:23:45;98056.44;;;22.87
6550;BMP280;15142;48.888;9.134;2023-08-08T11:26:17;98067.03;;;22.39
6550;BMP280;15142;48.888;9.134;2023-08-08T11:28:49;98066.03;;;21.96
6550;BMP280;15142;48.888;9.134;2023-08-08T11:31:19;98073.66;;;22.94
6550;BMP280;15142;48.888;9.134;2023-08-08T11:33:49;98059.66;;;22.73
6550;BMP280;15142;48.888;9.134;2023-08-08T11:36:21;98062.69;;;21.95
6550;BMP280;15142;48.888;9.134;2023-08-08T11:43:50;98078.72;;;22.81
6550;BMP280;15142;48.888;9.134;2023-08-08T11:46:22;98064.41;;;23.00
6550;BMP280;15142;48.888;9.134;2023-08-08T11:53:52;98055.72;;;24.21
6550;BMP280;15142;48.888;9.134;2023-08-08T12:06:17;98044.53;;;22.82
6550;BMP280;15142;48.888;9.134;2023-08-08T12:16:14;98035.66;;;22.29
6550;BMP280;15142;48.888;9.134;2023-08-08T12:23:39;98035.06;;;22.39
6550;BMP280;15142;48.888;9.134;2023-08-08T12:26:11;98044.97;;;22.59
6550;BMP280;15142;48.888;9.134;2023-08-08T14:16:52;98000.13;;;22.72
6550;BMP280;15142;48.888;9.134;2023-08-08T14:49:10;97982.69;;;21.86
6550;BMP280;15142;48.888;9.134;2023-08-08T14:51:38;98021.53;;;21.53
6550;BMP280;15142;48.888;9.134;2023-08-08T15:04:04;98004.88;;;20.91
6550;BMP280;15142;48.888;9.134;2023-08-08T15:06:32;98022.63;;;20.89
6550;BMP280;15142;48.888;9.134;2023-08-08T15:26:22;98016.00;;;21.33
6550;BMP280;15142;48.888;9.134;2023-08-08T16:08:30;98011.06;;;21.46
6550;BMP280;15142;48.888;9.134;2023-08-08T16:28:25;98013.06;;;21.56
6550;BMP280;15142;48.888;9.134;2023-08-08T16:30:54;98017.22;;;21.61
6550;BMP280;15142;48.888;9.134;2023-08-08T16:35:52;98006.88;;;21.90
6550;BMP280;15142;48.888;9.134;2023-08-08T16:38:20;98007.41;;;21.98
6550;BMP280;15142;48.888;9.134;2023-08-08T17:18:03;98036.69;;;20.70
6550;BMP280;15142;48.888;9.134;2023-08-08T17:28:01;98036.19;;;20.64
6550;BMP280;15142;48.888;9.134;2023-08-08T17:45:23;98031.13;;;20.34
6550;BMP280;15142;48.888;9.134;2023-08-08T17:52:49;98047.84;;;20.36
6550;BMP280;15142;48.888;9.134;2023-08-08T17:55:20;98040.31;;;20.32
6550;BMP280;15142;48.888;9.134;2023-08-08T17:57:49;98043.53;;;20.25
6550;BMP280;15142;48.888;9.134;2023-08-08T18:00:18;98036.00;;;20.20
6550;BMP280;15142;48.888;9.134;2023-08-08T18:02:47;98048.38;;;20.11
6550;BMP280;15142;48.888;9.134;2023-08-08T18:05:16;98034.69;;;20.11
6550;BMP280;15142;48.888;9.134;2023-08-08T18:07:44;98041.63;;;20.07
6550;BMP280;15142;48.888;9.134;2023-08-08T18:10:13;98040.13;;;20.06
6550;BMP280;15142;48.888;9.134;2023-08-08T18:12:44;98039.22;;;19.99
6550;BMP280;15142;48.888;9.134;2023-08-08T18:15:13;98035.22;;;20.01
6550;BMP280;15142;48.888;9.134;2023-08-08T18:17:42;98032.63;;;20.01
6550;BMP280;15142;48.888;9.134;2023-08-08T18:20:11;98037.28;;;19.96
6550;BMP280;15142;48.888;9.134;2023-08-08T18:22:39;98034.59;;;19.92
6550;BMP280;15142;48.888;9.134;2023-08-08T18:25:08;98042.81;;;19.94
6550;BMP280;15142;48.888;9.134;2023-08-08T18:27:39;98026.09;;;19.92
6550;BMP280;15142;48.888;9.134;2023-08-08T18:30:11;98031.63;;;19.90
6550;BMP280;15142;48.888;9.134;2023-08-08T18:32:40;98035.97;;;19.86
6550;BMP280;15142;48.888;9.134;2023-08-08T18:35:09;98029.59;;;19.84
6550;BMP280;15142;48.888;9.134;2023-08-08T18:37:38;98032.19;;;19.84
6550;BMP280;15142;48.888;9.134;2023-08-08T18:40:08;98025.47;;;19.83
6550;BMP280;15142;48.888;9.134;2023-08-08T18:42:37;98037.47;;;19.87
6550;BMP280;15142;48.888;9.134;2023-08-08T18:45:07;98035.78;;;19.80
6550;BMP280;15142;48.888;9.134;2023-08-08T18:47:38;98025.25;;;19.73
6550;BMP280;15142;48.888;9.134;2023-08-08T18:50:08;98030.28;;;19.66
6550;BMP280;15142;48.888;9.134;2023-08-08T18:52:37;98028.69;;;19.61
6550;BMP280;15142;48.888;9.134;2023-08-08T18:55:06;98036.59;;;19.53
6550;BMP280;15142;48.888;9.134;2023-08-08T18:57:34;98041.69;;;19.50
6550;BMP280;15142;48.888;9.134;2023-08-08T19:00:04;98046.88;;;19.50
6550;BMP280;15142;48.888;9.134;2023-08-08T19:02:33;98046.78;;;19.46
6550;BMP280;15142;48.888;9.134;2023-08-08T19:05:06;98041.50;;;19.43
6550;BMP280;15142;48.888;9.134;2023-08-08T19:07:34;98036.19;;;19.36
6550;BMP280;15142;48.888;9.134;2023-08-08T19:10:04;98051.63;;;19.32
6550;BMP280;15142;48.888;9.134;2023-08-08T19:12:33;98049.69;;;19.29
6550;BMP280;15142;48.888;9.134;2023-08-08T19:15:02;98052.09;;;19.23
6550;BMP280;15142;48.888;9.134;2023-08-08T19:17:32;98057.50;;;19.18
6550;BMP280;15142;48.888;9.134;2023-08-08T19:20:00;98054.81;;;19.14
6550;BMP280;15142;48.888;9.134;2023-08-08T19:22:32;98060.66;;;19.11
6550;BMP280;15142;48.888;9.134;2023-08-08T19:25:00;98059.69;;;19.04
6550;BMP280;15142;48.888;9.134;2023-08-08T19:27:29;98069.19;;;19.00
6550;BMP280;15142;48.888;9.134;2023-08-08T19:29:57;98070.06;;;19.04
6550;BMP280;15142;48.888;9.134;2023-08-08T19:32:26;98071.78;;;19.00
6550;BMP280;15142;48.888;9.134;2023-08-08T19:34:54;98078.28;;;18.94
6550;BMP280;15142;48.888;9.134;2023-08-08T19:37:23;98072.25;;;18.90
6550;BMP280;15142;48.888;9.134;2023-08-08T19:39:54;98071.28;;;18.83
6550;BMP280;15142;48.888;9.134;2023-08-08T19:42:23;98076.69;;;18.78
6550;BMP280;15142;48.888;9.134;2023-08-08T19:44:51;98078.09;;;18.75
6550;BMP280;15142;48.888;9.134;2023-08-08T19:47:20;98075.63;;;18.67
6550;BMP280;15142;48.888;9.134;2023-08-08T19:49:49;98071.88;;;18.65
6550;BMP280;15142;48.888;9.134;2023-08-08T19:52:17;98077.25;;;18.60
6550;BMP280;15142;48.888;9.134;2023-08-08T19:54:48;98082.22;;;18.53
6550;BMP280;15142;48.888;9.134;2023-08-08T19:57:19;98068.44;;;18.37
6550;BMP280;15142;48.888;9.134;2023-08-08T19:59:48;98063.94;;;18.22
6550;BMP280;15142;48.888;9.134;2023-08-08T20:02:19;98086.31;;;18.07
6550;BMP280;15142;48.888;9.134;2023-08-08T20:04:47;98083.69;;;17.83
6550;BMP280;15142;48.888;9.134;2023-08-08T20:07:16;98081.38;;;17.70